sensor_id;sensor_type;location;lat;lon;timestamp;P1;durP1;ratioP1;P2;durP2;ratioP2
9222;SDS011;7557;51.698;3.942;2023-04-03T00:00:52;3.37;;;2.40;;
9222;SDS011;7557;51.698;3.942;2023-04-03T00:03:19;3.13;;;2.63;;
9222;SDS011;7557;51.698;3.942;2023-04-03T00:05:47;2.80;;;2.57;;
9222;SDS011;7557;51.698;3.942;2023-04-03T00:08:16;3.30;;;2.90;;
9222;SDS011;7557;51.698;3.942;2023-04-03T00:10:43;2.60;;;2.40;;
9222;SDS011;7557;51.698;3.942;2023-04-03T00:13:11;2.67;;;2.47;;
9222;SDS011;7557;51.698;3.942;2023-04-03T00:15:40;5.23;;;2.33;;
9222;SDS011;7557;51.698;3.942;2023-04-03T00:18:08;2.67;;;2.47;;
9222;SDS011;7557;51.698;3.942;2023-04-03T00:20:37;4.00;;;2.53;;
9222;SDS011;7557;51.698;3.942;2023-04-03T00:23:04;2.30;;;2.20;;
9222;SDS011;7557;51.698;3.942;2023-04-03T00:25:33;2.97;;;2.77;;
9222;SDS011;7557;51.698;3.942;2023-04-03T00:28:01;2.93;;;2.63;;
9222;SDS011;7557;51.698;3.942;2023-04-03T00:30:29;3.03;;;2.83;;
9222;SDS011;7557;51.698;3.942;2023-04-03T00:32:57;4.13;;;2.70;;
9222;SDS011;7557;51.698;3.942;2023-04-03T00:35:25;2.83;;;2.40;;
9222;SDS011;7557;51.698;3.942;2023-04-03T00:37:56;4.87;;;2.67;;
9222;SDS011;7557;51.698;3.942;2023-04-03T00:40:24;2.83;;;2.63;;
9222;SDS011;7557;51.698;3.942;2023-04-03T00:42:56;2.77;;;2.53;;
9222;SDS011;7557;51.698;3.942;2023-04-03T00:45:27;2.83;;;2.70;;
9222;SDS011;7557;51.698;3.942;2023-04-03T00:48:00;2.63;;;2.43;;
9222;SDS011;7557;51.698;3.942;2023-04-03T00:50:30;3.40;;;2.97;;
9222;SDS011;7557;51.698;3.942;2023-04-03T00:53:04;4.03;;;2.53;;
9222;SDS011;7557;51.698;3.942;2023-04-03T00:55:32;2.63;;;2.43;;
9222;SDS011;7557;51.698;3.942;2023-04-03T00:58:03;3.00;;;2.80;;
9222;SDS011;7557;51.698;3.942;2023-04-03T01:00:33;2.70;;;2.50;;
9222;SDS011;7557;51.698;3.942;2023-04-03T01:03:02;3.20;;;3.00;;
9222;SDS011;7557;51.698;3.942;2023-04-03T01:05:30;3.67;;;2.43;;
9222;SDS011;7557;51.698;3.942;2023-04-03T01:07:57;3.53;;;2.63;;
9222;SDS011;7557;51.698;3.942;2023-04-03T01:10:25;2.50;;;2.40;;
9222;SDS011;7557;51.698;3.942;2023-04-03T01:12:53;2.57;;;2.37;;
9222;SDS011;7557;51.698;3.942;2023-04-03T01:15:22;4.90;;;2.50;;
9222;SDS011;7557;51.698;3.942;2023-04-03T01:17:53;2.97;;;2.50;;
9222;SDS011;7557;51.698;3.942;2023-04-03T01:23:27;2.27;;;2.07;;
9222;SDS011;7557;51.698;3.942;2023-04-03T01:26:04;3.60;;;1.87;;
9222;SDS011;7557;51.698;3.942;2023-04-03T01:28:32;2.07;;;1.97;;
9222;SDS011;7557;51.698;3.942;2023-04-03T01:31:06;2.93;;;1.80;;
9222;SDS011;7557;51.698;3.942;2023-04-03T01:33:42;2.00;;;1.90;;
9222;SDS011;7557;51.698;3.942;2023-04-03T01:36:13;2.13;;;2.00;;
9222;SDS011;7557;51.698;3.942;2023-04-03T01:38:41;2.20;;;1.80;;
9222;SDS011;7557;51.698;3.942;2023-04-03T01:41:09;2.77;;;1.80;;
9222;SDS011;7557;51.698;3.942;2023-04-03T01:43:36;2.63;;;2.03;;
9222;SDS011;7557;51.698;3.942;2023-04-03T01:46:04;2.47;;;2.00;;
9222;SDS011;7557;51.698;3.942;2023-04-03T01:48:33;2.30;;;2.20;;
9222;SDS011;7557;51.698;3.942;2023-04-03T01:51:02;2.23;;;1.90;;
9222;SDS011;7557;51.698;3.942;2023-04-03T01:53:29;2.17;;;2.07;;
9222;SDS011;7557;51.698;3.942;2023-04-03T01:55:57;2.40;;;2.10;;
9222;SDS011;7557;51.698;3.942;2023-04-03T01:58:24;3.27;;;2.17;;
9222;SDS011;7557;51.698;3.942;2023-04-03T02:00:52;2.30;;;2.20;;
9222;SDS011;7557;51.698;3.942;2023-04-03T02:03:19;2.03;;;1.93;;
9222;SDS011;7557;51.698;3.942;2023-04-03T02:05:47;2.10;;;2.00;;
9222;SDS011;7557;51.698;3.942;2023-04-03T02:08:16;2.53;;;2.27;;
9222;SDS011;7557;51.698;3.942;2023-04-03T02:10:44;2.47;;;2.23;;
9222;SDS011;7557;51.698;3.942;2023-04-03T02:13:13;2.60;;;2.10;;
9222;SDS011;7557;51.698;3.942;2023-04-03T02:15:40;2.47;;;1.90;;
9222;SDS011;7557;51.698;3.942;2023-04-03T02:18:08;2.20;;;2.10;;
9222;SDS011;7557;51.698;3.942;2023-04-03T02:20:35;2.10;;;1.90;;
9222;SDS011;7557;51.698;3.942;2023-04-03T02:23:03;3.73;;;2.47;;
9222;SDS011;7557;51.698;3.942;2023-04-03T02:25:32;2.80;;;2.60;;
9222;SDS011;7557;51.698;3.942;2023-04-03T02:27:59;2.70;;;2.10;;
9222;SDS011;7557;51.698;3.942;2023-04-03T02:30:27;3.70;;;2.50;;
9222;SDS011;7557;51.698;3.942;2023-04-03T02:32:55;2.27;;;2.13;;
9222;SDS011;7557;51.698;3.942;2023-04-03T02:35:22;3.90;;;2.30;;
9222;SDS011;7557;51.698;3.942;2023-04-03T02:37:50;3.73;;;2.20;;
9222;SDS011;7557;51.698;3.942;2023-04-03T02:40:17;2.83;;;2.13;;
9222;SDS011;7557;51.698;3.942;2023-04-03T02:42:46;2.40;;;2.30;;
9222;SDS011;7557;51.698;3.942;2023-04-03T02:45:14;2.30;;;2.20;;
9222;SDS011;7557;51.698;3.942;2023-04-03T02:47:41;2.40;;;2.20;;
9222;SDS011;7557;51.698;3.942;2023-04-03T02:50:11;3.13;;;2.83;;
9222;SDS011;7557;51.698;3.942;2023-04-03T02:52:39;2.30;;;2.10;;
9222;SDS011;7557;51.698;3.942;2023-04-03T02:55:07;4.83;;;3.03;;
9222;SDS011;7557;51.698;3.942;2023-04-03T02:57:35;2.63;;;2.33;;
9222;SDS011;7557;51.698;3.942;2023-04-03T03:00:04;2.57;;;2.30;;
9222;SDS011;7557;51.698;3.942;2023-04-03T03:02:32;2.80;;;2.67;;
9222;SDS011;7557;51.698;3.942;2023-04-03T03:05:00;2.90;;;2.33;;
9222;SDS011;7557;51.698;3.942;2023-04-03T03:07:28;2.70;;;2.40;;
9222;SDS011;7557;51.698;3.942;2023-04-03T03:09:55;3.53;;;2.67;;
9222;SDS011;7557;51.698;3.942;2023-04-03T03:12:23;2.70;;;2.50;;
9222;SDS011;7557;51.698;3.942;2023-04-03T03:14:50;3.00;;;2.80;;
9222;SDS011;7557;51.698;3.942;2023-04-03T03:17:19;3.93;;;2.47;;
9222;SDS011;7557;51.698;3.942;2023-04-03T03:19:46;3.30;;;1.87;;
9222;SDS011;7557;51.698;3.942;2023-04-03T03:22:14;3.13;;;2.60;;
9222;SDS011;7557;51.698;3.942;2023-04-03T03:24:42;2.93;;;2.60;;
9222;SDS011;7557;51.698;3.942;2023-04-03T03:27:10;2.00;;;1.90;;
9222;SDS011;7557;51.698;3.942;2023-04-03T03:29:38;4.10;;;2.73;;
9222;SDS011;7557;51.698;3.942;2023-04-03T03:32:05;2.20;;;2.10;;
9222;SDS011;7557;51.698;3.942;2023-04-03T03:34:34;2.97;;;2.77;;
9222;SDS011;7557;51.698;3.942;2023-04-03T03:37:01;3.13;;;2.83;;
9222;SDS011;7557;51.698;3.942;2023-04-03T03:39:29;2.87;;;2.67;;
9222;SDS011;7557;51.698;3.942;2023-04-03T03:41:56;2.93;;;2.50;;
9222;SDS011;7557;51.698;3.942;2023-04-03T03:44:23;2.93;;;2.67;;
9222;SDS011;7557;51.698;3.942;2023-04-03T03:46:51;2.33;;;2.20;;
9222;SDS011;7557;51.698;3.942;2023-04-03T03:49:18;2.83;;;2.63;;
9222;SDS011;7557;51.698;3.942;2023-04-03T03:51:47;2.37;;;2.27;;
9222;SDS011;7557;51.698;3.942;2023-04-03T03:54:15;4.53;;;2.93;;
9222;SDS011;7557;51.698;3.942;2023-04-03T03:56:42;3.00;;;2.60;;
9222;SDS011;7557;51.698;3.942;2023-04-03T03:59:11;4.33;;;3.00;;
9222;SDS011;7557;51.698;3.942;2023-04-03T04:01:38;3.07;;;2.80;;
9222;SDS011;7557;51.698;3.942;2023-04-03T04:04:06;2.50;;;2.30;;
9222;SDS011;7557;51.698;3.942;2023-04-03T04:06:33;3.23;;;2.93;;
9222;SDS011;7557;51.698;3.942;2023-04-03T04:09:03;3.47;;;2.67;;
9222;SDS011;7557;51.698;3.942;2023-04-03T04:11:30;3.57;;;2.80;;
9222;SDS011;7557;51.698;3.942;2023-04-03T04:13:58;5.23;;;2.77;;
9222;SDS011;7557;51.698;3.942;2023-04-03T04:16:26;3.70;;;2.53;;
9222;SDS011;7557;51.698;3.942;2023-04-03T04:18:53;3.43;;;2.57;;
9222;SDS011;7557;51.698;3.942;2023-04-03T04:21:21;3.17;;;2.97;;
9222;SDS011;7557;51.698;3.942;2023-04-03T04:23:48;4.30;;;2.93;;
9222;SDS011;7557;51.698;3.942;2023-04-03T04:26:17;4.17;;;3.07;;
9222;SDS011;7557;51.698;3.942;2023-04-03T04:28:45;3.03;;;2.70;;
9222;SDS011;7557;51.698;3.942;2023-04-03T04:31:12;3.07;;;2.77;;
9222;SDS011;7557;51.698;3.942;2023-04-03T04:33:40;3.30;;;3.07;;
9222;SDS011;7557;51.698;3.942;2023-04-03T04:36:07;3.03;;;2.73;;
9222;SDS011;7557;51.698;3.942;2023-04-03T04:38:35;2.90;;;2.60;;
9222;SDS011;7557;51.698;3.942;2023-04-03T04:41:03;3.00;;;2.80;;
9222;SDS011;7557;51.698;3.942;2023-04-03T04:43:32;2.83;;;2.63;;
9222;SDS011;7557;51.698;3.942;2023-04-03T04:46:00;3.20;;;2.90;;
9222;SDS011;7557;51.698;3.942;2023-04-03T04:48:28;6.47;;;3.00;;
9222;SDS011;7557;51.698;3.942;2023-04-03T04:50:55;3.50;;;2.97;;
9222;SDS011;7557;51.698;3.942;2023-04-03T04:53:23;3.57;;;2.80;;
9222;SDS011;7557;51.698;3.942;2023-04-03T04:55:51;5.10;;;2.87;;
9222;SDS011;7557;51.698;3.942;2023-04-03T04:58:18;7.37;;;3.67;;
9222;SDS011;7557;51.698;3.942;2023-04-03T05:00:47;4.53;;;3.20;;
9222;SDS011;7557;51.698;3.942;2023-04-03T05:03:15;2.80;;;2.60;;
9222;SDS011;7557;51.698;3.942;2023-04-03T05:05:42;3.57;;;3.27;;
9222;SDS011;7557;51.698;3.942;2023-04-03T05:08:10;3.83;;;2.97;;
9222;SDS011;7557;51.698;3.942;2023-04-03T05:10:37;3.97;;;2.83;;
9222;SDS011;7557;51.698;3.942;2023-04-03T05:13:05;4.27;;;2.93;;
9222;SDS011;7557;51.698;3.942;2023-04-03T05:15:33;5.57;;;3.27;;
9222;SDS011;7557;51.698;3.942;2023-04-03T05:18:02;3.43;;;3.00;;
9222;SDS011;7557;51.698;3.942;2023-04-03T05:20:30;4.43;;;3.20;;
9222;SDS011;7557;51.698;3.942;2023-04-03T05:22:57;4.20;;;3.10;;
9222;SDS011;7557;51.698;3.942;2023-04-03T05:25:25;3.33;;;3.13;;
9222;SDS011;7557;51.698;3.942;2023-04-03T05:27:52;3.40;;;3.13;;
9222;SDS011;7557;51.698;3.942;2023-04-03T05:30:20;3.53;;;3.20;;
9222;SDS011;7557;51.698;3.942;2023-04-03T05:32:47;6.23;;;4.23;;
9222;SDS011;7557;51.698;3.942;2023-04-03T05:35:16;3.87;;;2.80;;
9222;SDS011;7557;51.698;3.942;2023-04-03T05:37:44;3.17;;;2.97;;
9222;SDS011;7557;51.698;3.942;2023-04-03T05:40:11;5.77;;;3.40;;
9222;SDS011;7557;51.698;3.942;2023-04-03T05:42:39;3.37;;;3.17;;
9222;SDS011;7557;51.698;3.942;2023-04-03T05:45:07;4.37;;;4.03;;
9222;SDS011;7557;51.698;3.942;2023-04-03T05:47:35;5.17;;;3.70;;
9222;SDS011;7557;51.698;3.942;2023-04-03T05:50:02;5.33;;;3.80;;
9222;SDS011;7557;51.698;3.942;2023-04-03T05:52:33;5.10;;;3.47;;
9222;SDS011;7557;51.698;3.942;2023-04-03T05:55:03;3.77;;;3.47;;
9222;SDS011;7557;51.698;3.942;2023-04-03T05:57:31;4.50;;;3.03;;
9222;SDS011;7557;51.698;3.942;2023-04-03T05:59:59;5.90;;;3.63;;
9222;SDS011;7557;51.698;3.942;2023-04-03T06:02:27;3.83;;;3.60;;
9222;SDS011;7557;51.698;3.942;2023-04-03T06:04:56;3.77;;;3.47;;
9222;SDS011;7557;51.698;3.942;2023-04-03T06:07:24;3.43;;;3.13;;
9222;SDS011;7557;51.698;3.942;2023-04-03T06:09:57;3.83;;;3.53;;
9222;SDS011;7557;51.698;3.942;2023-04-03T06:12:24;5.60;;;4.13;;
9222;SDS011;7557;51.698;3.942;2023-04-03T06:14:54;4.20;;;3.90;;
9222;SDS011;7557;51.698;3.942;2023-04-03T06:17:21;3.47;;;3.20;;
9222;SDS011;7557;51.698;3.942;2023-04-03T06:19:49;4.67;;;3.90;;
9222;SDS011;7557;51.698;3.942;2023-04-03T06:22:16;3.33;;;3.13;;
9222;SDS011;7557;51.698;3.942;2023-04-03T06:24:43;3.67;;;3.40;;
9222;SDS011;7557;51.698;3.942;2023-04-03T06:27:13;3.83;;;3.53;;
9222;SDS011;7557;51.698;3.942;2023-04-03T06:29:40;3.93;;;3.17;;
9222;SDS011;7557;51.698;3.942;2023-04-03T06:32:10;4.17;;;3.87;;
9222;SDS011;7557;51.698;3.942;2023-04-03T06:34:37;4.17;;;3.63;;
9222;SDS011;7557;51.698;3.942;2023-04-03T06:37:05;4.10;;;3.80;;
9222;SDS011;7557;51.698;3.942;2023-04-03T06:39:32;3.70;;;3.40;;
9222;SDS011;7557;51.698;3.942;2023-04-03T06:42:00;4.20;;;3.80;;
9222;SDS011;7557;51.698;3.942;2023-04-03T06:44:29;3.40;;;2.90;;
9222;SDS011;7557;51.698;3.942;2023-04-03T06:46:56;3.70;;;3.40;;
9222;SDS011;7557;51.698;3.942;2023-04-03T06:49:23;3.60;;;3.30;;
9222;SDS011;7557;51.698;3.942;2023-04-03T06:51:51;4.10;;;3.80;;
9222;SDS011;7557;51.698;3.942;2023-04-03T06:54:18;3.87;;;2.77;;
9222;SDS011;7557;51.698;3.942;2023-04-03T06:56:46;3.60;;;3.30;;
9222;SDS011;7557;51.698;3.942;2023-04-03T06:59:13;3.83;;;3.57;;
9222;SDS011;7557;51.698;3.942;2023-04-03T07:01:42;3.93;;;3.10;;
9222;SDS011;7557;51.698;3.942;2023-04-03T07:04:10;3.40;;;3.20;;
9222;SDS011;7557;51.698;3.942;2023-04-03T07:06:37;3.77;;;3.40;;
9222;SDS011;7557;51.698;3.942;2023-04-03T07:09:05;3.43;;;3.23;;
9222;SDS011;7557;51.698;3.942;2023-04-03T07:11:32;5.27;;;3.37;;
9222;SDS011;7557;51.698;3.942;2023-04-03T07:14:01;3.37;;;3.10;;
9222;SDS011;7557;51.698;3.942;2023-04-03T07:16:28;7.17;;;3.87;;
9222;SDS011;7557;51.698;3.942;2023-04-03T07:18:58;3.50;;;3.23;;
9222;SDS011;7557;51.698;3.942;2023-04-03T07:21:25;3.23;;;2.90;;
9222;SDS011;7557;51.698;3.942;2023-04-03T07:23:53;5.27;;;3.40;;
9222;SDS011;7557;51.698;3.942;2023-04-03T07:26:20;3.50;;;2.93;;
9222;SDS011;7557;51.698;3.942;2023-04-03T07:28:48;3.70;;;3.37;;
9222;SDS011;7557;51.698;3.942;2023-04-03T07:31:17;3.50;;;3.20;;
9222;SDS011;7557;51.698;3.942;2023-04-03T07:33:46;3.70;;;3.30;;
9222;SDS011;7557;51.698;3.942;2023-04-03T07:36:16;7.57;;;4.10;;
9222;SDS011;7557;51.698;3.942;2023-04-03T07:38:45;3.40;;;3.10;;
9222;SDS011;7557;51.698;3.942;2023-04-03T07:41:13;3.53;;;3.23;;
9222;SDS011;7557;51.698;3.942;2023-04-03T07:43:42;3.43;;;3.10;;
9222;SDS011;7557;51.698;3.942;2023-04-03T07:46:10;3.83;;;3.40;;
9222;SDS011;7557;51.698;3.942;2023-04-03T07:48:37;3.60;;;3.40;;
9222;SDS011;7557;51.698;3.942;2023-04-03T07:51:05;3.27;;;2.97;;
9222;SDS011;7557;51.698;3.942;2023-04-03T07:53:34;4.23;;;3.23;;
9222;SDS011;7557;51.698;3.942;2023-04-03T07:56:01;3.50;;;3.20;;
9222;SDS011;7557;51.698;3.942;2023-04-03T07:58:29;3.63;;;2.90;;
9222;SDS011;7557;51.698;3.942;2023-04-03T08:00:57;4.63;;;2.90;;
9222;SDS011;7557;51.698;3.942;2023-04-03T08:03:27;3.30;;;3.10;;
9222;SDS011;7557;51.698;3.942;2023-04-03T08:05:54;5.03;;;3.23;;
9222;SDS011;7557;51.698;3.942;2023-04-03T08:08:28;2.70;;;2.60;;
9222;SDS011;7557;51.698;3.942;2023-04-03T08:10:58;3.13;;;2.80;;
9222;SDS011;7557;51.698;3.942;2023-04-03T08:13:28;3.37;;;3.17;;
9222;SDS011;7557;51.698;3.942;2023-04-03T08:15:56;3.53;;;2.97;;
9222;SDS011;7557;51.698;3.942;2023-04-03T08:18:24;2.60;;;2.40;;
9222;SDS011;7557;51.698;3.942;2023-04-03T08:20:51;4.50;;;2.70;;
9222;SDS011;7557;51.698;3.942;2023-04-03T08:23:19;3.50;;;3.20;;
9222;SDS011;7557;51.698;3.942;2023-04-03T08:25:46;3.10;;;2.73;;
9222;SDS011;7557;51.698;3.942;2023-04-03T08:28:15;2.90;;;2.73;;
9222;SDS011;7557;51.698;3.942;2023-04-03T08:30:43;4.47;;;2.50;;
9222;SDS011;7557;51.698;3.942;2023-04-03T08:33:11;3.20;;;2.70;;
9222;SDS011;7557;51.698;3.942;2023-04-03T08:35:38;3.83;;;2.50;;
9222;SDS011;7557;51.698;3.942;2023-04-03T08:38:06;2.83;;;2.63;;
9222;SDS011;7557;51.698;3.942;2023-04-03T08:40:34;3.10;;;2.90;;
9222;SDS011;7557;51.698;3.942;2023-04-03T08:43:03;2.40;;;2.20;;
9222;SDS011;7557;51.698;3.942;2023-04-03T08:45:49;5.00;;;2.43;;
9222;SDS011;7557;51.698;3.942;2023-04-03T08:48:19;2.70;;;2.20;;
9222;SDS011;7557;51.698;3.942;2023-04-03T08:50:48;6.10;;;2.73;;
9222;SDS011;7557;51.698;3.942;2023-04-03T08:53:20;2.57;;;2.23;;
9222;SDS011;7557;51.698;3.942;2023-04-03T08:55:52;4.10;;;1.83;;
9222;SDS011;7557;51.698;3.942;2023-04-03T08:58:23;2.50;;;2.30;;
9222;SDS011;7557;51.698;3.942;2023-04-03T09:00:56;2.00;;;1.80;;
9222;SDS011;7557;51.698;3.942;2023-04-03T09:03:29;3.60;;;1.83;;
9222;SDS011;7557;51.698;3.942;2023-04-03T09:05:59;4.03;;;1.97;;
9222;SDS011;7557;51.698;3.942;2023-04-03T09:08:30;1.83;;;1.73;;
9222;SDS011;7557;51.698;3.942;2023-04-03T09:11:06;2.93;;;1.90;;
9222;SDS011;7557;51.698;3.942;2023-04-03T09:13:44;4.80;;;2.00;;
9222;SDS011;7557;51.698;3.942;2023-04-03T09:16:26;2.03;;;1.93;;
9222;SDS011;7557;51.698;3.942;2023-04-03T09:19:04;2.10;;;1.90;;
9222;SDS011;7557;51.698;3.942;2023-04-03T09:21:40;4.23;;;1.93;;
9222;SDS011;7557;51.698;3.942;2023-04-03T09:24:09;1.90;;;1.80;;
9222;SDS011;7557;51.698;3.942;2023-04-03T09:26:39;3.03;;;1.90;;
9222;SDS011;7557;51.698;3.942;2023-04-03T09:29:12;3.63;;;1.77;;
9222;SDS011;7557;51.698;3.942;2023-04-03T09:31:44;2.63;;;2.00;;
9222;SDS011;7557;51.698;3.942;2023-04-03T09:34:17;3.30;;;1.80;;
9222;SDS011;7557;51.698;3.942;2023-04-03T09:36:48;3.30;;;2.03;;
9222;SDS011;7557;51.698;3.942;2023-04-03T09:39:17;1.90;;;1.80;;
9222;SDS011;7557;51.698;3.942;2023-04-03T09:41:57;2.03;;;1.73;;
9222;SDS011;7557;51.698;3.942;2023-04-03T09:44:28;1.67;;;1.57;;
9222;SDS011;7557;51.698;3.942;2023-04-03T09:46:57;2.47;;;1.73;;
9222;SDS011;7557;51.698;3.942;2023-04-03T09:49:26;5.37;;;1.80;;
9222;SDS011;7557;51.698;3.942;2023-04-03T09:51:53;2.13;;;1.93;;
9222;SDS011;7557;51.698;3.942;2023-04-03T09:54:25;3.27;;;2.03;;
9222;SDS011;7557;51.698;3.942;2023-04-03T09:56:58;4.73;;;2.10;;
9222;SDS011;7557;51.698;3.942;2023-04-03T09:59:32;2.57;;;1.63;;
9222;SDS011;7557;51.698;3.942;2023-04-03T10:02:00;3.27;;;1.87;;
9222;SDS011;7557;51.698;3.942;2023-04-03T10:04:44;2.70;;;1.57;;
9222;SDS011;7557;51.698;3.942;2023-04-03T10:07:28;2.73;;;1.60;;
9222;SDS011;7557;51.698;3.942;2023-04-03T10:09:58;1.20;;;1.20;;
9222;SDS011;7557;51.698;3.942;2023-04-03T10:12:26;2.10;;;1.90;;
9222;SDS011;7557;51.698;3.942;2023-04-03T10:14:58;1.37;;;1.27;;
9222;SDS011;7557;51.698;3.942;2023-04-03T10:17:31;5.10;;;2.33;;
9222;SDS011;7557;51.698;3.942;2023-04-03T10:20:17;2.27;;;2.03;;
9222;SDS011;7557;51.698;3.942;2023-04-03T10:23:00;2.30;;;1.50;;
9222;SDS011;7557;51.698;3.942;2023-04-03T10:25:40;2.27;;;1.40;;
9222;SDS011;7557;51.698;3.942;2023-04-03T10:28:12;1.70;;;1.60;;
9222;SDS011;7557;51.698;3.942;2023-04-03T10:30:50;4.27;;;1.97;;
9222;SDS011;7557;51.698;3.942;2023-04-03T10:33:34;1.90;;;1.80;;
9222;SDS011;7557;51.698;3.942;2023-04-03T10:36:12;2.30;;;1.50;;
9222;SDS011;7557;51.698;3.942;2023-04-03T10:38:50;3.33;;;1.33;;
9222;SDS011;7557;51.698;3.942;2023-04-03T10:41:25;2.17;;;1.57;;
9222;SDS011;7557;51.698;3.942;2023-04-03T10:44:07;1.30;;;1.20;;
9222;SDS011;7557;51.698;3.942;2023-04-03T10:46:47;1.20;;;1.10;;
9222;SDS011;7557;51.698;3.942;2023-04-03T10:49:21;0.90;;;0.90;;
9222;SDS011;7557;51.698;3.942;2023-04-03T10:51:59;1.40;;;1.30;;
9222;SDS011;7557;51.698;3.942;2023-04-03T10:54:35;1.27;;;1.20;;
9222;SDS011;7557;51.698;3.942;2023-04-03T10:57:06;2.83;;;1.20;;
9222;SDS011;7557;51.698;3.942;2023-04-03T10:59:36;2.00;;;1.17;;
9222;SDS011;7557;51.698;3.942;2023-04-03T11:02:11;1.40;;;1.27;;
9222;SDS011;7557;51.698;3.942;2023-04-03T11:04:46;1.60;;;1.13;;
9222;SDS011;7557;51.698;3.942;2023-04-03T11:07:19;1.00;;;1.00;;
9222;SDS011;7557;51.698;3.942;2023-04-03T11:09:48;2.40;;;1.00;;
9222;SDS011;7557;51.698;3.942;2023-04-03T11:12:20;1.80;;;1.27;;
9222;SDS011;7557;51.698;3.942;2023-04-03T11:14:53;0.97;;;0.97;;
9222;SDS011;7557;51.698;3.942;2023-04-03T11:17:26;1.53;;;0.90;;
9222;SDS011;7557;51.698;3.942;2023-04-03T11:19:59;0.90;;;0.90;;
9222;SDS011;7557;51.698;3.942;2023-04-03T11:22:33;1.07;;;1.07;;
9222;SDS011;7557;51.698;3.942;2023-04-03T11:25:14;0.93;;;0.93;;
9222;SDS011;7557;51.698;3.942;2023-04-03T11:27:48;1.70;;;0.90;;
9222;SDS011;7557;51.698;3.942;2023-04-03T11:30:21;0.83;;;0.83;;
9222;SDS011;7557;51.698;3.942;2023-04-03T11:33:12;2.10;;;1.20;;
9222;SDS011;7557;51.698;3.942;2023-04-03T11:35:51;1.00;;;1.00;;
9222;SDS011;7557;51.698;3.942;2023-04-03T11:38:25;0.70;;;0.70;;
9222;SDS011;7557;51.698;3.942;2023-04-03T11:40:55;3.10;;;1.27;;
9222;SDS011;7557;51.698;3.942;2023-04-03T11:43:26;0.93;;;0.87;;
9222;SDS011;7557;51.698;3.942;2023-04-03T11:45:55;0.87;;;0.87;;
9222;SDS011;7557;51.698;3.942;2023-04-03T11:48:44;0.63;;;0.63;;
9222;SDS011;7557;51.698;3.942;2023-04-03T12:09:22;0.70;;;0.70;;
9222;SDS011;7557;51.698;3.942;2023-04-03T12:11:52;1.17;;;1.03;;
9222;SDS011;7557;51.698;3.942;2023-04-03T12:14:22;1.23;;;0.70;;
9222;SDS011;7557;51.698;3.942;2023-04-03T12:16:52;0.87;;;0.87;;
9222;SDS011;7557;51.698;3.942;2023-04-03T12:19:35;0.97;;;0.93;;
9222;SDS011;7557;51.698;3.942;2023-04-03T12:22:17;0.93;;;0.93;;
9222;SDS011;7557;51.698;3.942;2023-04-03T12:24:47;0.80;;;0.80;;
9222;SDS011;7557;51.698;3.942;2023-04-03T12:27:29;0.97;;;0.77;;
9222;SDS011;7557;51.698;3.942;2023-04-03T12:30:06;2.43;;;0.93;;
9222;SDS011;7557;51.698;3.942;2023-04-03T12:32:48;1.10;;;0.83;;
9222;SDS011;7557;51.698;3.942;2023-04-03T12:35:27;0.90;;;0.90;;
9222;SDS011;7557;51.698;3.942;2023-04-03T12:41:19;1.47;;;0.97;;
9222;SDS011;7557;51.698;3.942;2023-04-03T12:44:00;1.30;;;0.93;;
9222;SDS011;7557;51.698;3.942;2023-04-03T12:46:50;0.70;;;0.70;;
9222;SDS011;7557;51.698;3.942;2023-04-03T12:49:30;1.10;;;1.10;;
9222;SDS011;7557;51.698;3.942;2023-04-03T12:52:02;1.23;;;0.97;;
9222;SDS011;7557;51.698;3.942;2023-04-03T12:54:33;0.80;;;0.80;;
9222;SDS011;7557;51.698;3.942;2023-04-03T12:57:11;1.07;;;0.93;;
9222;SDS011;7557;51.698;3.942;2023-04-03T12:59:39;1.33;;;1.17;;
9222;SDS011;7557;51.698;3.942;2023-04-03T13:02:17;1.17;;;0.70;;
9222;SDS011;7557;51.698;3.942;2023-04-03T13:04:49;2.23;;;1.00;;
9222;SDS011;7557;51.698;3.942;2023-04-03T13:07:22;0.90;;;0.90;;
9222;SDS011;7557;51.698;3.942;2023-04-03T13:09:57;1.83;;;1.00;;
9222;SDS011;7557;51.698;3.942;2023-04-03T13:12:29;2.00;;;1.00;;
9222;SDS011;7557;51.698;3.942;2023-04-03T13:14:58;1.60;;;0.90;;
9222;SDS011;7557;51.698;3.942;2023-04-03T13:17:29;1.40;;;0.83;;
9222;SDS011;7557;51.698;3.942;2023-04-03T13:20:11;2.50;;;1.00;;
9222;SDS011;7557;51.698;3.942;2023-04-03T13:22:41;1.83;;;0.80;;
9222;SDS011;7557;51.698;3.942;2023-04-03T13:25:14;1.27;;;1.13;;
9222;SDS011;7557;51.698;3.942;2023-04-03T13:27:46;1.23;;;0.90;;
9222;SDS011;7557;51.698;3.942;2023-04-03T13:30:23;0.70;;;0.70;;
9222;SDS011;7557;51.698;3.942;2023-04-03T13:32:53;0.60;;;0.60;;
9222;SDS011;7557;51.698;3.942;2023-04-03T13:35:29;0.87;;;0.87;;
9222;SDS011;7557;51.698;3.942;2023-04-03T13:38:04;2.77;;;0.90;;
9222;SDS011;7557;51.698;3.942;2023-04-03T13:40:47;0.70;;;0.70;;
9222;SDS011;7557;51.698;3.942;2023-04-03T13:43:19;1.17;;;1.17;;
9222;SDS011;7557;51.698;3.942;2023-04-03T13:45:57;0.77;;;0.77;;
9222;SDS011;7557;51.698;3.942;2023-04-03T13:48:39;1.07;;;0.90;;
9222;SDS011;7557;51.698;3.942;2023-04-03T13:51:17;0.80;;;0.77;;
9222;SDS011;7557;51.698;3.942;2023-04-03T13:53:47;0.97;;;0.97;;
9222;SDS011;7557;51.698;3.942;2023-04-03T13:56:19;0.90;;;0.90;;
9222;SDS011;7557;51.698;3.942;2023-04-03T13:58:56;0.93;;;0.57;;
9222;SDS011;7557;51.698;3.942;2023-04-03T14:01:40;0.80;;;0.80;;
9222;SDS011;7557;51.698;3.942;2023-04-03T14:04:11;0.90;;;0.90;;
9222;SDS011;7557;51.698;3.942;2023-04-03T14:06:42;0.60;;;0.60;;
9222;SDS011;7557;51.698;3.942;2023-04-03T14:09:11;0.83;;;0.83;;
9222;SDS011;7557;51.698;3.942;2023-04-03T14:11:39;1.15;;;0.88;;
9222;SDS011;7557;51.698;3.942;2023-04-03T14:14:11;0.97;;;0.97;;
9222;SDS011;7557;51.698;3.942;2023-04-03T14:16:42;1.20;;;1.20;;
9222;SDS011;7557;51.698;3.942;2023-04-03T14:19:14;1.23;;;0.80;;
9222;SDS011;7557;51.698;3.942;2023-04-03T14:21:45;0.90;;;0.90;;
9222;SDS011;7557;51.698;3.942;2023-04-03T14:24:13;0.87;;;0.87;;
9222;SDS011;7557;51.698;3.942;2023-04-03T14:26:41;0.80;;;0.80;;
9222;SDS011;7557;51.698;3.942;2023-04-03T14:29:12;0.63;;;0.63;;
9222;SDS011;7557;51.698;3.942;2023-04-03T14:31:41;0.80;;;0.80;;
9222;SDS011;7557;51.698;3.942;2023-04-03T14:34:09;0.90;;;0.90;;
9222;SDS011;7557;51.698;3.942;2023-04-03T14:36:38;0.70;;;0.70;;
9222;SDS011;7557;51.698;3.942;2023-04-03T14:39:07;1.10;;;1.10;;
9222;SDS011;7557;51.698;3.942;2023-04-03T14:41:37;0.80;;;0.80;;
9222;SDS011;7557;51.698;3.942;2023-04-03T14:44:05;1.10;;;0.90;;
9222;SDS011;7557;51.698;3.942;2023-04-03T14:46:36;1.33;;;1.23;;
9222;SDS011;7557;51.698;3.942;2023-04-03T14:49:06;1.23;;;1.20;;
9222;SDS011;7557;51.698;3.942;2023-04-03T14:51:42;0.97;;;0.97;;
9222;SDS011;7557;51.698;3.942;2023-04-03T14:54:12;1.47;;;1.20;;
9222;SDS011;7557;51.698;3.942;2023-04-03T14:56:40;1.20;;;1.20;;
9222;SDS011;7557;51.698;3.942;2023-04-03T14:59:09;1.00;;;1.00;;
9222;SDS011;7557;51.698;3.942;2023-04-03T15:01:42;1.17;;;1.17;;
9222;SDS011;7557;51.698;3.942;2023-04-03T15:04:10;1.20;;;1.10;;
9222;SDS011;7557;51.698;3.942;2023-04-03T15:06:40;1.23;;;1.23;;
9222;SDS011;7557;51.698;3.942;2023-04-03T15:09:11;1.27;;;1.17;;
9222;SDS011;7557;51.698;3.942;2023-04-03T15:11:47;1.37;;;1.27;;
9222;SDS011;7557;51.698;3.942;2023-04-03T15:14:15;2.07;;;1.20;;
9222;SDS011;7557;51.698;3.942;2023-04-03T15:16:44;1.27;;;1.10;;
9222;SDS011;7557;51.698;3.942;2023-04-03T15:19:12;1.63;;;1.60;;
9222;SDS011;7557;51.698;3.942;2023-04-03T15:21:39;1.37;;;1.30;;
9222;SDS011;7557;51.698;3.942;2023-04-03T15:24:08;2.57;;;1.53;;
9222;SDS011;7557;51.698;3.942;2023-04-03T15:26:36;1.60;;;1.50;;
9222;SDS011;7557;51.698;3.942;2023-04-03T15:29:04;1.50;;;1.40;;
9222;SDS011;7557;51.698;3.942;2023-04-03T15:31:32;1.87;;;1.40;;
9222;SDS011;7557;51.698;3.942;2023-04-03T15:34:01;2.50;;;1.30;;
9222;SDS011;7557;51.698;3.942;2023-04-03T15:36:30;1.63;;;1.13;;
9222;SDS011;7557;51.698;3.942;2023-04-03T15:38:57;1.70;;;1.60;;
9222;SDS011;7557;51.698;3.942;2023-04-03T15:41:25;4.30;;;1.57;;
9222;SDS011;7557;51.698;3.942;2023-04-03T15:43:52;2.93;;;1.57;;
9222;SDS011;7557;51.698;3.942;2023-04-03T15:46:20;2.10;;;1.47;;
9222;SDS011;7557;51.698;3.942;2023-04-03T15:48:47;3.50;;;1.60;;
9222;SDS011;7557;51.698;3.942;2023-04-03T15:51:17;1.70;;;1.60;;
9222;SDS011;7557;51.698;3.942;2023-04-03T15:53:44;2.17;;;1.73;;
9222;SDS011;7557;51.698;3.942;2023-04-03T15:56:12;2.30;;;1.60;;
9222;SDS011;7557;51.698;3.942;2023-04-03T15:58:40;2.03;;;1.53;;